createdAt,value
2023-05-09T00:02:04.538Z,65.40
2023-05-09T00:08:07.584Z,65.63
2023-05-09T00:15:05.074Z,66.44
2023-05-09T00:21:29.060Z,66.03
2023-05-09T00:28:03.408Z,66.39
2023-05-09T00:34:25.194Z,67.06
2023-05-09T00:40:49.142Z,67.25
2023-05-09T00:47:12.989Z,67.22
2023-05-09T00:53:36.907Z,67.29
2023-05-09T00:59:04.073Z,67.25
2023-05-09T01:04:25.057Z,67.51
2023-05-09T01:10:20.290Z,67.47
2023-05-09T01:15:56.426Z,67.73
2023-05-09T01:22:36.256Z,67.86
2023-05-09T01:29:23.800Z,67.79
2023-05-09T01:35:54.977Z,68.02
2023-05-09T01:42:19.608Z,67.91
2023-05-09T01:48:41.878Z,68.19
2023-05-09T01:55:01.134Z,68.50
2023-05-09T02:01:28.619Z,68.47
2023-05-09T02:08:29.511Z,68.48
2023-05-09T02:15:41.532Z,68.45
2023-05-09T02:21:42.298Z,68.94
2023-05-09T02:27:24.009Z,69.39
2023-05-09T02:32:45.992Z,69.69
2023-05-09T02:38:15.173Z,69.62
2023-05-09T02:44:37.019Z,69.58
2023-05-09T02:50:45.351Z,69.75
2023-05-09T02:56:10.442Z,70.03
2023-05-09T03:02:37.037Z,70.01
2023-05-09T03:09:19.695Z,70.45
2023-05-09T03:16:04.760Z,70.92
2023-05-09T03:29:52.819Z,70.66
2023-05-09T03:36:14.370Z,70.85
2023-05-09T03:41:37.238Z,71.49
2023-05-09T03:46:40.620Z,71.69
2023-05-09T03:52:42.428Z,71.73
2023-05-09T03:59:03.788Z,71.78
2023-05-09T04:05:26.166Z,72.07
2023-05-09T04:11:47.583Z,72.15
2023-05-09T04:18:20.767Z,71.94
2023-05-09T04:23:43.909Z,72.00
2023-05-09T04:28:46.438Z,71.75
2023-05-09T04:34:28.394Z,71.88
2023-05-09T04:41:22.106Z,71.89
2023-05-09T04:48:26.754Z,71.76
2023-05-09T04:55:31.632Z,71.82
2023-05-09T05:01:55.559Z,71.45
2023-05-09T05:08:59.225Z,70.60
2023-05-09T05:16:02.997Z,69.69
2023-05-09T05:22:49.913Z,69.03
2023-05-09T05:38:47.832Z,65.17
2023-05-09T05:45:41.152Z,62.45
2023-05-09T05:52:44.822Z,60.26
2023-05-09T05:59:48.660Z,59.09
2023-05-09T06:06:35.935Z,56.48
2023-05-09T06:13:33.058Z,55.11
2023-05-09T06:20:38.264Z,52.51
2023-05-09T06:27:34.060Z,50.80
2023-05-09T06:34:37.445Z,49.13
2023-05-09T06:41:41.092Z,46.76
2023-05-09T06:48:44.817Z,47.03
2023-05-09T06:55:48.624Z,43.13
2023-05-09T07:03:12.978Z,42.94
2023-05-09T07:10:16.487Z,41.90
2023-05-09T07:16:37.589Z,41.56
2023-05-09T07:23:21.559Z,40.05
2023-05-09T07:30:24.012Z,38.99
2023-05-09T07:37:04.070Z,37.57
2023-05-09T07:44:08.041Z,38.42
2023-05-09T07:51:11.731Z,37.11
2023-05-09T07:57:47.720Z,36.33
2023-05-09T08:04:49.934Z,37.37
2023-05-09T08:11:33.051Z,36.21
2023-05-09T08:18:37.123Z,36.16
2023-05-09T08:25:04.085Z,36.32
2023-05-09T08:50:22.096Z,37.96
2023-05-09T08:57:25.852Z,36.49
2023-05-09T09:04:12.169Z,37.78
2023-05-09T09:10:47.253Z,38.26
2023-05-09T09:17:26.765Z,37.25
2023-05-09T09:24:21.811Z,37.94
2023-05-09T09:31:01.434Z,38.09
2023-05-09T09:37:50.256Z,38.26
2023-05-09T09:44:53.982Z,39.04
2023-05-09T09:51:50.382Z,39.17
2023-05-09T09:58:56.645Z,37.59
2023-05-09T10:05:52.920Z,38.43
2023-05-09T10:12:21.676Z,38.49
2023-05-09T10:19:25.014Z,35.90
2023-05-09T10:26:41.478Z,33.64
2023-05-09T10:33:54.127Z,33.26
2023-05-09T10:41:00.531Z,32.98
2023-05-09T10:48:04.133Z,31.54
2023-05-09T10:55:08.192Z,31.31
2023-05-09T11:02:09.518Z,31.96
2023-05-09T11:09:21.711Z,33.42
2023-05-09T11:15:29.602Z,33.39
2023-05-09T11:21:33.298Z,33.67
2023-05-09T11:28:04.953Z,32.05
2023-05-09T11:34:31.281Z,30.52
2023-05-09T11:41:24.605Z,30.87
2023-05-09T11:47:31.438Z,30.44
2023-05-09T11:53:46.824Z,28.43
2023-05-09T12:00:10.969Z,28.03
2023-05-09T12:06:20.468Z,28.04
2023-05-09T12:12:11.990Z,27.28
2023-05-09T12:19:03.387Z,27.01
2023-05-09T12:25:23.310Z,25.91
2023-05-09T12:32:02.429Z,25.87
2023-05-09T12:39:07.282Z,25.86
2023-05-09T12:45:46.851Z,26.39
2023-05-09T12:58:39.042Z,26.22
2023-05-09T13:04:40.405Z,26.81
2023-05-09T13:11:51.406Z,24.59
2023-05-09T13:17:53.418Z,24.96
2023-05-09T13:24:33.890Z,26.68
2023-05-09T13:30:40.746Z,26.95
2023-05-09T13:37:07.398Z,27.29
2023-05-09T13:43:42.896Z,27.13
2023-05-09T13:49:45.954Z,27.00
2023-05-09T13:55:59.087Z,26.33
2023-05-09T14:02:18.972Z,28.18
2023-05-09T14:09:15.521Z,27.33
2023-05-09T14:15:42.698Z,27.47
2023-05-09T14:22:21.403Z,26.22
2023-05-09T14:29:24.673Z,27.49
2023-05-09T14:36:39.778Z,28.39
2023-05-09T14:43:42.801Z,27.99
2023-05-09T14:50:28.080Z,28.14
2023-05-09T14:57:11.628Z,26.80
2023-05-09T15:03:53.125Z,27.45
2023-05-09T15:09:42.312Z,27.75
2023-05-09T15:16:01.098Z,27.79
2023-05-09T15:22:44.556Z,27.83
2023-05-09T15:29:30.013Z,28.12
2023-05-09T15:36:07.905Z,29.90
2023-05-09T15:43:10.538Z,30.38
2023-05-09T15:50:13.247Z,31.87
2023-05-09T15:57:18.327Z,32.32
2023-05-09T16:03:49.057Z,33.02
2023-05-09T16:10:23.736Z,34.07
2023-05-09T16:15:59.875Z,33.70
2023-05-09T16:22:47.436Z,34.18
2023-05-09T16:29:51.439Z,34.84
2023-05-09T16:36:55.056Z,35.25
2023-05-09T16:43:58.774Z,35.07
2023-05-09T16:50:30.048Z,35.63
2023-05-09T16:57:26.167Z,35.41
2023-05-09T17:04:01.347Z,35.91
2023-05-09T17:14:12.130Z,36.48
2023-05-09T17:20:38.622Z,36.51
2023-05-09T17:27:02.703Z,36.75
2023-05-09T17:33:26.267Z,37.32
2023-05-09T17:39:14.797Z,37.45
2023-05-09T17:44:18.660Z,37.56
2023-05-09T17:50:19.736Z,37.98
2023-05-09T17:56:40.860Z,38.31
2023-05-09T18:03:02.029Z,38.64
2023-05-09T18:08:31.195Z,38.87
2023-05-09T18:13:35.524Z,39.27
2023-05-09T18:19:36.778Z,39.62
2023-05-09T18:25:58.068Z,40.06
2023-05-09T18:31:21.894Z,40.47
2023-05-09T18:36:23.591Z,40.82
2023-05-09T18:41:25.855Z,41.17
2023-05-09T18:46:27.390Z,41.28
2023-05-09T18:52:12.660Z,41.50
2023-05-09T18:58:09.872Z,42.12
2023-05-09T19:04:24.627Z,42.25
2023-05-09T19:17:08.661Z,43.09
2023-05-09T19:23:35.277Z,43.16
2023-05-09T19:30:38.273Z,43.95
2023-05-09T19:37:41.091Z,44.14
2023-05-09T19:44:09.048Z,44.19
2023-05-09T19:50:26.165Z,44.51
2023-05-09T19:56:28.837Z,44.73
2023-05-09T20:01:30.785Z,44.95
2023-05-09T20:06:32.256Z,45.03
2023-05-09T20:11:33.700Z,45.01
2023-05-09T20:16:35.788Z,44.96
2023-05-09T20:21:37.337Z,45.17
2023-05-09T20:26:38.786Z,45.08
2023-05-09T20:31:41.123Z,45.12
2023-05-09T20:37:42.456Z,45.29
2023-05-09T20:44:13.671Z,45.24
2023-05-09T20:50:34.614Z,45.47
2023-05-09T20:57:05.614Z,45.60
2023-05-09T21:03:26.643Z,45.74
2023-05-09T21:09:47.719Z,45.89
2023-05-09T21:15:29.189Z,45.94
2023-05-09T21:21:30.275Z,46.09
2023-05-09T21:27:51.277Z,46.42
2023-05-09T21:33:12.512Z,46.56
2023-05-09T21:38:13.790Z,46.74
2023-05-09T21:44:15.488Z,46.96
2023-05-09T21:50:56.572Z,47.35
2023-05-09T21:56:17.799Z,47.53
2023-05-09T22:01:19.571Z,47.51
2023-05-09T22:06:21.142Z,47.72
2023-05-09T22:11:22.632Z,47.88
2023-05-09T22:16:24.028Z,48.08
2023-05-09T22:21:25.572Z,48.12
2023-05-09T22:26:26.753Z,48.18
2023-05-09T22:31:28.229Z,48.30
2023-05-09T22:36:29.509Z,48.43
2023-05-09T22:42:30.570Z,48.82
2023-05-09T22:47:52.063Z,49.17
2023-05-09T22:52:53.574Z,49.77
2023-05-09T22:57:55.012Z,50.30
2023-05-09T23:02:56.406Z,50.47
2023-05-09T23:08:21.495Z,50.60
2023-05-09T23:14:42.253Z,50.90
2023-05-09T23:21:03.449Z,51.45
2023-05-09T23:27:24.498Z,51.82
2023-05-09T23:32:46.068Z,52.21
2023-05-09T23:37:49.493Z,52.25
2023-05-09T23:42:51.305Z,52.37
2023-05-09T23:47:53.731Z,52.53
2023-05-09T23:52:55.158Z,52.78
2023-05-09T23:57:56.443Z,53.07
